Time,TemperatureF,DewpointF,PressureIn,WindDirection,WindDirectionDegrees,WindSpeedMPH,WindSpeedGustMPH,Humidity,HourlyPrecipIn,Conditions,Clouds,dailyrainin,SoftwareType,DateUTC
2013-12-07 00:01:00,-4.0,-10.2,30.56,SSE,158,0.0,2.2,74,0.00,,,0.00,VWS V14.01,2013-12-07 06:01:00,
2013-12-07 00:06:00,-4.2,-10.4,30.56,NW,315,1.6,2.2,74,0.00,,,0.00,VWS V14.01,2013-12-07 06:06:00,
2013-12-07 00:11:00,-4.2,-10.4,30.56,SE,135,0.9,2.0,74,0.00,,,0.00,VWS V14.01,2013-12-07 06:11:00,
2013-12-07 00:16:00,-4.4,-10.5,30.56,NNW,338,0.0,2.0,74,0.00,,,0.00,VWS V14.01,2013-12-07 06:16:00,
2013-12-07 00:21:00,-4.4,-10.5,30.56,SW,225,0.9,1.1,74,0.00,,,0.00,VWS V14.01,2013-12-07 06:21:00,
2013-12-07 00:26:00,-4.5,-10.7,30.56,SW,225,0.0,0.0,74,0.00,,,0.00,VWS V14.01,2013-12-07 06:26:00,
2013-12-07 00:31:00,-4.7,-10.9,30.56,SW,225,0.0,0.0,74,0.00,,,0.00,VWS V14.01,2013-12-07 06:31:00,
2013-12-07 00:36:00,-4.7,-10.9,30.56,South,180,0.0,1.1,74,0.00,,,0.00,VWS V14.01,2013-12-07 06:36:00,
2013-12-07 00:41:00,-4.9,-11.1,30.56,South,180,0.0,1.1,74,0.00,,,0.00,VWS V14.01,2013-12-07 06:41:00,
2013-12-07 00:46:00,-4.9,-11.1,30.56,WSW,248,0.0,2.7,74,0.00,,,0.00,VWS V14.01,2013-12-07 06:46:00,
2013-12-07 00:51:00,-4.9,-11.1,30.56,SSW,202,0.0,3.1,74,0.00,,,0.00,VWS V14.01,2013-12-07 06:51:00,
2013-12-07 00:56:00,-4.9,-11.1,30.56,WSW,248,1.1,3.1,74,0.00,,,0.00,VWS V14.01,2013-12-07 06:56:00,
2013-12-07 01:01:00,-4.7,-10.9,30.56,SSW,202,0.0,2.5,74,0.00,,,0.00,VWS V14.01,2013-12-07 07:01:00,
2013-12-07 01:06:00,-4.7,-10.9,30.59,NNW,338,0.0,0.0,74,0.00,,,0.00,VWS V14.01,2013-12-07 07:06:00,
2013-12-07 01:12:00,-4.7,-10.9,30.59,SW,225,0.9,1.1,74,0.00,,,0.00,VWS V14.01,2013-12-07 07:12:00,
2013-12-07 01:17:00,-4.7,-10.9,30.56,WNW,292,2.5,2.5,74,0.00,,,0.00,VWS V14.01,2013-12-07 07:17:00,
2013-12-07 01:22:00,-4.9,-11.1,30.56,South,180,0.0,1.3,74,0.00,,,0.00,VWS V14.01,2013-12-07 07:22:00,
2013-12-07 01:27:00,-5.1,-11.2,30.56,SSE,158,0.0,0.0,74,0.00,,,0.00,VWS V14.01,2013-12-07 07:27:00,
2013-12-07 01:32:00,-5.1,-11.2,30.59,West,270,0.0,0.0,74,0.00,,,0.00,VWS V14.01,2013-12-07 07:32:00,
2013-12-07 01:37:00,-5.1,-11.2,30.59,NNW,338,0.0,0.0,74,0.00,,,0.00,VWS V14.01,2013-12-07 07:37:00,
2013-12-07 01:42:00,-5.3,-11.4,30.59,SSW,202,0.0,0.0,74,0.00,,,0.00,VWS V14.01,2013-12-07 07:42:00,
2013-12-07 01:47:00,-5.4,-11.6,30.59,NNW,338,0.0,0.0,74,0.00,,,0.00,VWS V14.01,2013-12-07 07:47:00,
2013-12-07 01:52:00,-5.6,-11.8,30.59,West,270,0.0,2.7,74,0.00,,,0.00,VWS V14.01,2013-12-07 07:52:00,
2013-12-07 01:57:00,-5.6,-11.8,30.59,WSW,248,2.2,2.9,74,0.00,,,0.00,VWS V14.01,2013-12-07 07:57:00,
2013-12-07 02:02:00,-5.6,-11.8,30.59,SW,225,1.3,4.9,74,0.00,,,0.00,VWS V14.01,2013-12-07 08:02:00,
2013-12-07 02:07:00,-5.6,-11.8,30.59,NNW,338,2.5,3.1,74,0.00,,,0.00,VWS V14.01,2013-12-07 08:07:00,
2013-12-07 02:12:00,-5.8,-11.9,30.59,WSW,248,4.9,4.9,74,0.00,,,0.00,VWS V14.01,2013-12-07 08:12:00,
2013-12-07 02:17:00,-5.8,-11.9,30.62,South,180,1.3,1.3,74,0.00,,,0.00,VWS V14.01,2013-12-07 08:17:00,
2013-12-07 02:22:00,-5.8,-11.9,30.62,WSW,248,1.1,1.1,74,0.00,,,0.00,VWS V14.01,2013-12-07 08:22:00,
2013-12-07 02:27:00,-5.8,-11.9,30.62,SSW,202,0.0,1.3,74,0.00,,,0.00,VWS V14.01,2013-12-07 08:27:00,
2013-12-07 02:32:00,-5.8,-11.9,30.59,South,180,2.2,3.8,74,0.00,,,0.00,VWS V14.01,2013-12-07 08:32:00,
2013-12-07 02:38:00,-6.0,-12.1,30.59,North,0,3.4,3.4,74,0.00,,,0.00,VWS V14.01,2013-12-07 08:38:00,
2013-12-07 02:43:00,-6.0,-12.1,30.59,SSW,202,3.1,3.1,74,0.00,,,0.00,VWS V14.01,2013-12-07 08:43:00,
2013-12-07 02:48:00,-6.2,-12.3,30.59,SSW,202,0.9,2.7,74,0.00,,,0.00,VWS V14.01,2013-12-07 08:48:00,
2013-12-07 02:53:00,-6.2,-12.3,30.59,NW,315,2.0,4.9,74,0.00,,,0.00,VWS V14.01,2013-12-07 08:53:00,
2013-12-07 02:58:00,-6.3,-12.4,30.59,WSW,248,2.2,2.5,74,0.00,,,0.00,VWS V14.01,2013-12-07 08:58:00,
2013-12-07 03:03:00,-6.3,-12.4,30.59,NNW,338,0.0,1.3,74,0.00,,,0.00,VWS V14.01,2013-12-07 09:03:00,
2013-12-07 03:08:00,-6.3,-12.4,30.59,WSW,248,0.0,4.5,74,0.00,,,0.00,VWS V14.01,2013-12-07 09:08:00,
2013-12-07 03:13:00,-6.3,-12.4,30.59,East,90,0.0,0.0,74,0.00,,,0.00,VWS V14.01,2013-12-07 09:13:00,
2013-12-07 03:18:00,-6.5,-12.6,30.59,NE,45,0.9,2.0,74,0.00,,,0.00,VWS V14.01,2013-12-07 09:18:00,
2013-12-07 03:23:00,-6.7,-12.8,30.59,WNW,292,2.0,4.0,74,0.00,,,0.00,VWS V14.01,2013-12-07 09:23:00,
2013-12-07 03:28:00,-6.9,-13.0,30.59,SW,225,2.0,2.0,74,0.00,,,0.00,VWS V14.01,2013-12-07 09:28:00,
2013-12-07 03:33:00,-6.9,-13.0,30.56,SSE,158,0.0,1.3,74,0.00,,,0.00,VWS V14.01,2013-12-07 09:33:00,
2013-12-07 03:38:00,-7.1,-13.1,30.56,SW,225,2.0,2.5,74,0.00,,,0.00,VWS V14.01,2013-12-07 09:38:00,
2013-12-07 03:43:00,-7.1,-13.1,30.56,SE,135,0.0,3.1,74,0.00,,,0.00,VWS V14.01,2013-12-07 09:43:00,
2013-12-07 03:48:00,-7.1,-13.1,30.59,SSW,202,2.0,2.9,74,0.00,,,0.00,VWS V14.01,2013-12-07 09:48:00,
2013-12-07 03:53:00,-7.4,-13.5,30.59,SSW,202,1.1,2.9,74,0.00,,,0.00,VWS V14.01,2013-12-07 09:53:00,
2013-12-07 03:58:00,-7.4,-13.5,30.59,WNW,292,3.4,5.6,74,0.00,,,0.00,VWS V14.01,2013-12-07 09:58:00,
2013-12-07 04:03:00,-7.6,-13.7,30.59,WSW,248,1.1,3.1,74,0.00,,,0.00,VWS V14.01,2013-12-07 10:03:00,
2013-12-07 04:09:00,-7.6,-13.7,30.59,SE,135,1.1,2.7,74,0.00,,,0.00,VWS V14.01,2013-12-07 10:09:00,
2013-12-07 04:14:00,-7.8,-13.8,30.59,WSW,248,0.0,1.3,74,0.00,,,0.00,VWS V14.01,2013-12-07 10:14:00,
2013-12-07 04:19:00,-7.8,-13.8,30.59,ESE,112,0.0,1.6,74,0.00,,,0.00,VWS V14.01,2013-12-07 10:19:00,
2013-12-07 04:24:00,-8.0,-14.0,30.59,South,180,0.0,1.3,74,0.00,,,0.00,VWS V14.01,2013-12-07 10:24:00,
2013-12-07 04:29:00,-8.0,-14.0,30.59,SW,225,2.2,2.2,74,0.00,,,0.00,VWS V14.01,2013-12-07 10:29:00,
2013-12-07 04:34:00,-8.0,-14.0,30.59,East,90,0.0,2.2,74,0.00,,,0.00,VWS V14.01,2013-12-07 10:34:00,
2013-12-07 04:39:00,-8.1,-14.2,30.59,SW,225,3.4,3.4,74,0.00,,,0.00,VWS V14.01,2013-12-07 10:39:00,
2013-12-07 04:44:00,-8.1,-14.2,30.59,SW,225,2.7,3.8,74,0.00,,,0.00,VWS V14.01,2013-12-07 10:44:00,
2013-12-07 04:49:00,-8.1,-14.2,30.59,NNW,338,1.6,6.5,74,0.00,,,0.00,VWS V14.01,2013-12-07 10:49:00,
2013-12-07 04:54:00,-8.1,-14.2,30.62,WSW,248,1.6,2.2,74,0.00,,,0.00,VWS V14.01,2013-12-07 10:54:00,
2013-12-07 04:59:00,-8.3,-14.4,30.62,SW,225,0.0,2.2,74,0.00,,,0.00,VWS V14.01,2013-12-07 10:59:00,
2013-12-07 05:04:00,-8.3,-14.4,30.62,NW,315,2.9,2.9,74,0.00,,,0.00,VWS V14.01,2013-12-07 11:04:00,
2013-12-07 05:09:00,-8.5,-14.5,30.62,WSW,248,2.5,2.5,74,0.00,,,0.00,VWS V14.01,2013-12-07 11:09:00,
2013-12-07 05:14:00,-8.5,-14.5,30.62,SSE,158,1.6,2.9,74,0.00,,,0.00,VWS V14.01,2013-12-07 11:14:00,
2013-12-07 05:19:00,-8.7,-14.7,30.59,SSW,202,1.1,4.9,74,0.00,,,0.00,VWS V14.01,2013-12-07 11:19:00,
2013-12-07 05:24:00,-8.7,-14.7,30.59,WNW,292,0.0,2.5,74,0.00,,,0.00,VWS V14.01,2013-12-07 11:24:00,
2013-12-07 05:29:00,-8.9,-14.9,30.59,NW,315,0.0,2.7,74,0.00,,,0.00,VWS V14.01,2013-12-07 11:29:00,
2013-12-07 05:35:00,-9.0,-15.1,30.62,NNE,22,0.9,1.6,74,0.00,,,0.00,VWS V14.01,2013-12-07 11:35:00,
2013-12-07 05:40:00,-9.0,-15.1,30.62,WNW,292,0.9,2.2,74,0.00,,,0.00,VWS V14.01,2013-12-07 11:40:00,
2013-12-07 05:45:00,-9.2,-15.2,30.62,WNW,292,0.0,2.0,74,0.00,,,0.00,VWS V14.01,2013-12-07 11:45:00,
2013-12-07 05:50:00,-9.4,-15.4,30.59,ENE,68,1.3,1.3,74,0.00,,,0.00,VWS V14.01,2013-12-07 11:50:00,
2013-12-07 05:55:00,-9.4,-15.4,30.59,NNW,338,1.6,2.2,74,0.00,,,0.00,VWS V14.01,2013-12-07 11:55:00,
2013-12-07 06:00:00,-9.4,-15.4,30.59,WSW,248,0.0,3.6,74,0.00,,,0.00,VWS V14.01,2013-12-07 12:00:00,
2013-12-07 06:05:00,-9.6,-15.6,30.59,South,180,0.0,1.6,74,0.00,,,0.00,VWS V14.01,2013-12-07 12:05:00,
2013-12-07 06:10:00,-9.6,-15.6,30.59,SSW,202,0.0,2.2,74,0.00,,,0.00,VWS V14.01,2013-12-07 12:10:00,
2013-12-07 06:15:00,-9.6,-15.6,30.59,South,180,0.0,1.1,74,0.00,,,0.00,VWS V14.01,2013-12-07 12:15:00,
2013-12-07 06:20:00,-9.6,-15.6,30.62,NW,315,0.0,2.2,74,0.00,,,0.00,VWS V14.01,2013-12-07 12:20:00,
2013-12-07 06:25:00,-9.6,-15.6,30.62,SSE,158,0.0,1.6,74,0.00,,,0.00,VWS V14.01,2013-12-07 12:25:00,
2013-12-07 06:30:00,-9.8,-15.8,30.62,SSE,158,0.0,0.0,74,0.00,,,0.00,VWS V14.01,2013-12-07 12:30:00,
2013-12-07 06:35:00,-9.9,-15.9,30.62,West,270,0.0,1.6,74,0.00,,,0.00,VWS V14.01,2013-12-07 12:35:00,
2013-12-07 06:40:00,-10.1,-16.1,30.62,SW,225,0.0,1.3,74,0.00,,,0.00,VWS V14.01,2013-12-07 12:40:00,
2013-12-07 06:45:00,-10.3,-16.3,30.62,SW,225,0.0,0.0,74,0.00,,,0.00,VWS V14.01,2013-12-07 12:45:00,
2013-12-07 06:50:00,-10.3,-16.3,30.62,NNE,22,0.0,0.0,74,0.00,,,0.00,VWS V14.01,2013-12-07 12:50:00,
2013-12-07 06:55:00,-10.5,-16.5,30.62,WSW,248,2.5,3.4,74,0.00,,,0.00,VWS V14.01,2013-12-07 12:55:00,
2013-12-07 07:01:00,-10.3,-16.3,30.62,SSW,202,0.0,2.7,74,0.00,,,0.00,VWS V14.01,2013-12-07 13:01:00,
2013-12-07 07:06:00,-10.3,-16.3,30.62,SE,135,0.0,1.3,74,0.00,,,0.00,VWS V14.01,2013-12-07 13:06:00,
2013-12-07 07:11:00,-10.3,-16.3,30.62,South,180,0.0,1.6,74,0.00,,,0.00,VWS V14.01,2013-12-07 13:11:00,
2013-12-07 07:16:00,-10.5,-16.5,30.62,NNE,22,0.0,1.1,74,0.00,,,0.00,VWS V14.01,2013-12-07 13:16:00,
2013-12-07 07:21:00,-10.5,-16.5,30.65,NNE,22,0.0,0.0,74,0.00,,,0.00,VWS V14.01,2013-12-07 13:21:00,
2013-12-07 07:26:00,-10.7,-16.6,30.65,NNE,22,0.0,0.0,74,0.00,,,0.00,VWS V14.01,2013-12-07 13:26:00,
2013-12-07 07:31:00,-10.8,-16.8,30.65,NNE,22,0.0,0.0,74,0.00,,,0.00,VWS V14.01,2013-12-07 13:31:00,
2013-12-07 07:36:00,-11.0,-17.0,30.62,ENE,68,0.0,0.0,74,0.00,,,0.00,VWS V14.01,2013-12-07 13:36:00,
2013-12-07 07:41:00,-11.0,-17.0,30.62,ENE,68,0.0,0.0,74,0.00,,,0.00,VWS V14.01,2013-12-07 13:41:00,
2013-12-07 07:46:00,-11.0,-17.0,30.62,SSE,158,1.3,1.3,74,0.00,,,0.00,VWS V14.01,2013-12-07 13:46:00,
2013-12-07 07:51:00,-10.8,-16.8,30.62,NE,45,0.0,2.9,74,0.00,,,0.00,VWS V14.01,2013-12-07 13:51:00,
2013-12-07 07:56:00,-10.8,-16.8,30.62,SSW,202,0.0,0.9,74,0.00,,,0.00,VWS V14.01,2013-12-07 13:56:00,
2013-12-07 08:01:00,-10.7,-16.6,30.62,ESE,112,2.0,2.0,74,0.00,,,0.00,VWS V14.01,2013-12-07 14:01:00,
2013-12-07 08:06:00,-10.3,-16.3,30.62,WSW,248,1.1,2.7,74,0.00,,,0.00,VWS V14.01,2013-12-07 14:06:00,
2013-12-07 08:11:00,-9.9,-15.9,30.62,ESE,112,1.3,3.8,74,0.00,,,0.00,VWS V14.01,2013-12-07 14:11:00,
2013-12-07 08:16:00,-9.6,-15.6,30.62,SW,225,4.7,4.7,74,0.00,,,0.00,VWS V14.01,2013-12-07 14:16:00,
2013-12-07 08:21:00,-9.2,-15.2,30.65,East,90,1.6,4.7,74,0.00,,,0.00,VWS V14.01,2013-12-07 14:21:00,
2013-12-07 08:26:00,-9.0,-15.1,30.65,SSW,202,1.3,3.8,74,0.00,,,0.00,VWS V14.01,2013-12-07 14:26:00,
2013-12-07 08:31:00,-8.7,-14.7,30.65,NW,315,3.4,5.8,74,0.00,,,0.00,VWS V14.01,2013-12-07 14:31:00,
2013-12-07 08:36:00,-8.5,-14.5,30.65,SW,225,2.9,3.6,74,0.00,,,0.00,VWS V14.01,2013-12-07 14:36:00,
2013-12-07 08:41:00,-8.5,-14.5,30.65,SE,135,0.0,0.0,74,0.00,,,0.00,VWS V14.01,2013-12-07 14:41:00,
2013-12-07 08:46:00,-8.0,-14.0,30.65,SW,225,0.0,0.0,74,0.00,,,0.00,VWS V14.01,2013-12-07 14:46:00,
2013-12-07 08:51:00,-7.8,-13.8,30.68,SSW,202,3.6,3.8,74,0.00,,,0.00,VWS V14.01,2013-12-07 14:51:00,
2013-12-07 08:57:00,-7.4,-13.5,30.68,SSE,158,1.3,2.7,74,0.00,,,0.00,VWS V14.01,2013-12-07 14:57:00,
2013-12-07 09:02:00,-7.2,-13.3,30.62,NNE,22,2.0,2.0,74,0.00,,,0.00,VWS V14.01,2013-12-07 15:02:00,
2013-12-07 09:07:00,-7.1,-13.1,30.62,WSW,248,2.5,2.9,74,0.00,,,0.00,VWS V14.01,2013-12-07 15:07:00,
2013-12-07 09:12:00,-6.9,-13.0,30.62,ENE,68,1.1,3.4,74,0.00,,,0.00,VWS V14.01,2013-12-07 15:12:00,
2013-12-07 09:17:00,-6.3,-12.4,30.62,ENE,68,1.1,3.6,74,0.00,,,0.00,VWS V14.01,2013-12-07 15:17:00,
2013-12-07 09:22:00,-6.3,-12.4,30.62,WSW,248,2.2,3.1,74,0.00,,,0.00,VWS V14.01,2013-12-07 15:22:00,
2013-12-07 09:27:00,-6.3,-12.4,30.62,NW,315,2.2,6.0,74,0.00,,,0.00,VWS V14.01,2013-12-07 15:27:00,
2013-12-07 09:32:00,-6.2,-12.3,30.62,SSW,202,2.9,2.9,74,0.00,,,0.00,VWS V14.01,2013-12-07 15:32:00,
2013-12-07 09:37:00,-6.0,-12.1,30.62,ENE,68,1.1,3.1,74,0.00,,,0.00,VWS V14.01,2013-12-07 15:37:00,
2013-12-07 09:42:00,-5.6,-11.8,30.62,ESE,112,0.0,0.0,74,0.00,,,0.00,VWS V14.01,2013-12-07 15:42:00,
2013-12-07 09:47:00,-5.4,-11.6,30.62,WNW,292,1.3,5.6,74,0.00,,,0.00,VWS V14.01,2013-12-07 15:47:00,
2013-12-07 09:52:00,-5.1,-11.2,30.62,East,90,0.0,1.6,74,0.00,,,0.00,VWS V14.01,2013-12-07 15:52:00,
2013-12-07 09:57:00,-4.9,-11.1,30.62,SSE,158,2.0,3.8,74,0.00,,,0.00,VWS V14.01,2013-12-07 15:57:00,
2013-12-07 10:03:00,-4.9,-11.1,30.65,South,180,3.4,3.4,74,0.00,,,0.00,VWS V14.01,2013-12-07 16:03:00,
2013-12-07 10:08:00,-4.7,-10.9,30.65,East,90,0.0,3.4,74,0.00,,,0.00,VWS V14.01,2013-12-07 16:08:00,
2013-12-07 10:13:00,-4.5,-10.7,30.65,SW,225,3.1,5.6,74,0.00,,,0.00,VWS V14.01,2013-12-07 16:13:00,
2013-12-07 10:18:00,-4.4,-10.5,30.65,SSE,158,1.1,2.5,74,0.00,,,0.00,VWS V14.01,2013-12-07 16:18:00,
2013-12-07 10:23:00,-4.0,-10.2,30.65,SSE,158,0.9,2.7,74,0.00,,,0.00,VWS V14.01,2013-12-07 16:23:00,
2013-12-07 10:28:00,-3.8,-10.0,30.65,NNE,22,2.0,2.0,74,0.00,,,0.00,VWS V14.01,2013-12-07 16:28:00,
2013-12-07 10:33:00,-3.5,-9.7,30.62,SSE,158,2.5,2.5,74,0.00,,,0.00,VWS V14.01,2013-12-07 16:33:00,
2013-12-07 10:38:00,-3.5,-9.7,30.62,WSW,248,1.6,3.4,74,0.00,,,0.00,VWS V14.01,2013-12-07 16:38:00,
2013-12-07 10:43:00,-3.3,-9.5,30.62,WSW,248,0.9,4.3,74,0.00,,,0.00,VWS V14.01,2013-12-07 16:43:00,
2013-12-07 10:48:00,-3.1,-9.3,30.65,SSW,202,1.6,2.7,74,0.00,,,0.00,VWS V14.01,2013-12-07 16:48:00,
2013-12-07 10:53:00,-2.9,-9.1,30.65,WNW,292,3.4,3.4,74,0.00,,,0.00,VWS V14.01,2013-12-07 16:53:00,
2013-12-07 10:58:00,-2.7,-9.0,30.65,East,90,1.3,3.1,74,0.00,,,0.00,VWS V14.01,2013-12-07 16:58:00,
2013-12-07 11:03:00,-2.6,-8.8,30.62,South,180,2.7,3.6,74,0.00,,,0.00,VWS V14.01,2013-12-07 17:03:00,
2013-12-07 11:08:00,-2.6,-8.8,30.62,SSW,202,4.3,4.3,74,0.00,,,0.00,VWS V14.01,2013-12-07 17:08:00,
2013-12-07 11:13:00,-2.2,-8.4,30.62,NW,315,2.0,4.3,74,0.00,,,0.00,VWS V14.01,2013-12-07 17:13:00,
2013-12-07 11:18:00,-1.8,-8.1,30.65,WNW,292,2.2,2.5,74,0.00,,,0.00,VWS V14.01,2013-12-07 17:18:00,
2013-12-07 11:23:00,-1.8,-8.1,30.65,SW,225,2.7,3.6,74,0.00,,,0.00,VWS V14.01,2013-12-07 17:23:00,
2013-12-07 11:28:00,-1.5,-7.7,30.65,South,180,3.1,4.7,74,0.00,,,0.00,VWS V14.01,2013-12-07 17:28:00,
2013-12-07 11:33:00,-1.3,-7.6,30.65,SE,135,1.3,5.4,74,0.00,,,0.00,VWS V14.01,2013-12-07 17:33:00,
2013-12-07 11:39:00,-0.9,-7.2,30.65,WSW,248,3.1,5.4,74,0.00,,,0.00,VWS V14.01,2013-12-07 17:39:00,
2013-12-07 11:44:00,-0.6,-6.9,30.65,ESE,112,0.9,4.0,74,0.00,,,0.00,VWS V14.01,2013-12-07 17:44:00,
2013-12-07 11:49:00,-0.2,-6.5,30.65,SSE,158,3.4,3.6,74,0.00,,,0.00,VWS V14.01,2013-12-07 17:49:00,
2013-12-07 11:54:00,0.1,-6.2,30.65,SE,135,1.3,5.6,74,0.00,,,0.00,VWS V14.01,2013-12-07 17:54:00,
2013-12-07 11:59:00,0.7,-5.6,30.65,South,180,2.7,3.4,74,0.00,,,0.00,VWS V14.01,2013-12-07 17:59:00,
2013-12-07 12:04:00,1.2,-5.1,30.65,NW,315,4.3,5.6,74,0.00,,,0.00,VWS V14.01,2013-12-07 18:04:00,
2013-12-07 12:09:00,1.6,-4.8,30.65,WNW,292,5.8,5.8,74,0.00,,,0.00,VWS V14.01,2013-12-07 18:09:00,
2013-12-07 12:14:00,1.9,-4.4,30.65,WNW,292,2.5,7.2,74,0.00,,,0.00,VWS V14.01,2013-12-07 18:14:00,
2013-12-07 12:19:00,2.7,-3.7,30.62,South,180,4.7,4.7,74,0.00,,,0.00,VWS V14.01,2013-12-07 18:19:00,
2013-12-07 12:24:00,2.8,-3.5,30.62,NW,315,2.7,4.0,74,0.00,,,0.00,VWS V14.01,2013-12-07 18:24:00,
2013-12-07 12:29:00,3.2,-3.2,30.62,South,180,1.3,4.9,74,0.00,,,0.00,VWS V14.01,2013-12-07 18:29:00,
2013-12-07 12:34:00,3.6,-2.8,30.62,South,180,1.1,4.0,74,0.00,,,0.00,VWS V14.01,2013-12-07 18:34:00,
2013-12-07 12:39:00,3.6,-2.8,30.62,WSW,248,2.5,5.4,74,0.00,,,0.00,VWS V14.01,2013-12-07 18:39:00,
2013-12-07 12:44:00,3.7,-2.7,30.62,SSW,202,2.9,3.6,74,0.00,,,0.00,VWS V14.01,2013-12-07 18:44:00,
2013-12-07 12:50:00,4.5,-2.0,30.62,NNW,338,1.6,4.9,74,0.00,,,0.00,VWS V14.01,2013-12-07 18:50:00,
2013-12-07 12:55:00,4.5,-2.0,30.62,SSW,202,2.7,4.0,74,0.00,,,0.00,VWS V14.01,2013-12-07 18:55:00,
2013-12-07 13:00:00,4.5,-2.0,30.62,East,90,1.6,4.3,74,0.00,,,0.00,VWS V14.01,2013-12-07 19:00:00,
2013-12-07 13:05:00,4.6,-1.8,30.59,ESE,112,2.2,4.3,74,0.00,,,0.00,VWS V14.01,2013-12-07 19:05:00,
2013-12-07 13:10:00,4.8,-1.6,30.59,ENE,68,2.7,4.0,74,0.00,,,0.00,VWS V14.01,2013-12-07 19:10:00,
2013-12-07 13:15:00,4.8,-1.6,30.59,WNW,292,1.6,4.7,74,0.00,,,0.00,VWS V14.01,2013-12-07 19:15:00,
2013-12-07 13:20:00,5.0,-1.5,30.59,SE,135,0.9,3.6,74,0.00,,,0.00,VWS V14.01,2013-12-07 19:20:00,
2013-12-07 13:25:00,5.2,-1.3,30.59,WNW,292,3.1,3.1,74,0.00,,,0.00,VWS V14.01,2013-12-07 19:25:00,
2013-12-07 13:30:00,5.0,-1.5,30.59,SW,225,3.8,4.7,74,0.00,,,0.00,VWS V14.01,2013-12-07 19:30:00,
2013-12-07 13:35:00,5.2,-1.3,30.59,WNW,292,2.0,3.1,74,0.00,,,0.00,VWS V14.01,2013-12-07 19:35:00,
2013-12-07 13:40:00,5.0,-1.5,30.59,West,270,2.5,4.9,74,0.00,,,0.00,VWS V14.01,2013-12-07 19:40:00,
2013-12-07 13:45:00,5.2,-1.3,30.59,SSE,158,2.7,4.0,74,0.00,,,0.00,VWS V14.01,2013-12-07 19:45:00,
2013-12-07 13:50:00,4.6,-1.8,30.59,SSW,202,3.4,6.5,74,0.00,,,0.00,VWS V14.01,2013-12-07 19:50:00,
2013-12-07 13:55:00,5.0,-1.5,30.59,NNW,338,1.3,4.9,74,0.00,,,0.00,VWS V14.01,2013-12-07 19:55:00,
2013-12-07 14:00:00,4.8,-1.6,30.59,WSW,248,3.8,5.8,74,0.00,,,0.00,VWS V14.01,2013-12-07 20:00:00,
2013-12-07 14:05:00,5.0,-1.5,30.56,WNW,292,1.6,5.8,74,0.00,,,0.00,VWS V14.01,2013-12-07 20:05:00,
2013-12-07 14:10:00,5.2,-1.3,30.56,South,180,2.5,6.3,74,0.00,,,0.00,VWS V14.01,2013-12-07 20:10:00,
2013-12-07 14:15:00,5.2,-1.3,30.56,NNW,338,3.4,6.3,74,0.00,,,0.00,VWS V14.01,2013-12-07 20:15:00,
2013-12-07 14:21:00,5.4,-1.1,30.59,NNE,22,0.9,5.8,74,0.00,,,0.00,VWS V14.01,2013-12-07 20:21:00,
2013-12-07 14:26:00,5.5,-0.9,30.59,ENE,68,0.0,4.0,74,0.00,,,0.00,VWS V14.01,2013-12-07 20:26:00,
2013-12-07 14:31:00,5.5,-0.9,30.59,SSE,158,1.3,3.6,74,0.00,,,0.00,VWS V14.01,2013-12-07 20:31:00,
2013-12-07 14:36:00,5.5,-0.9,30.59,WSW,248,2.0,3.8,74,0.00,,,0.00,VWS V14.01,2013-12-07 20:36:00,
2013-12-07 14:41:00,5.5,-0.9,30.59,WNW,292,2.5,3.1,74,0.00,,,0.00,VWS V14.01,2013-12-07 20:41:00,
2013-12-07 14:46:00,5.4,-1.1,30.59,NE,45,0.0,3.1,74,0.00,,,0.00,VWS V14.01,2013-12-07 20:46:00,
2013-12-07 14:51:00,4.5,-2.0,30.59,South,180,2.5,3.1,74,0.00,,,0.00,VWS V14.01,2013-12-07 20:51:00,
2013-12-07 14:56:00,4.1,-2.3,30.59,SSW,202,2.0,3.4,74,0.00,,,0.00,VWS V14.01,2013-12-07 20:56:00,
2013-12-07 15:01:00,3.9,-2.5,30.59,SW,225,3.1,5.6,74,0.00,,,0.00,VWS V14.01,2013-12-07 21:01:00,
2013-12-07 15:06:00,3.7,-2.7,30.59,NNW,338,0.0,4.9,74,0.00,,,0.00,VWS V14.01,2013-12-07 21:06:00,
2013-12-07 15:11:00,3.7,-2.7,30.59,SE,135,1.3,5.4,74,0.00,,,0.00,VWS V14.01,2013-12-07 21:11:00,
2013-12-07 15:16:00,3.7,-2.7,30.59,South,180,2.2,2.7,74,0.00,,,0.00,VWS V14.01,2013-12-07 21:16:00,
2013-12-07 15:21:00,3.6,-2.8,30.59,WNW,292,2.7,4.3,74,0.00,,,0.00,VWS V14.01,2013-12-07 21:21:00,
2013-12-07 15:26:00,3.4,-3.0,30.59,North,0,0.0,4.3,74,0.00,,,0.00,VWS V14.01,2013-12-07 21:26:00,
2013-12-07 15:31:00,3.2,-3.2,30.59,ENE,68,0.0,2.5,74,0.00,,,0.00,VWS V14.01,2013-12-07 21:31:00,
2013-12-07 15:36:00,3.2,-3.2,30.56,South,180,1.3,3.1,74,0.00,,,0.00,VWS V14.01,2013-12-07 21:36:00,
2013-12-07 15:41:00,3.2,-3.2,30.56,NNE,22,1.1,2.0,74,0.00,,,0.00,VWS V14.01,2013-12-07 21:41:00,
2013-12-07 15:46:00,3.2,-3.2,30.56,NE,45,0.9,3.1,74,0.00,,,0.00,VWS V14.01,2013-12-07 21:46:00,
2013-12-07 15:51:00,3.0,-3.4,30.56,West,270,1.6,3.1,74,0.00,,,0.00,VWS V14.01,2013-12-07 21:51:00,
2013-12-07 15:56:00,2.8,-3.5,30.56,WSW,248,0.0,2.2,74,0.00,,,0.00,VWS V14.01,2013-12-07 21:56:00,
2013-12-07 16:01:00,2.8,-3.5,30.56,SSW,202,0.0,2.7,74,0.00,,,0.00,VWS V14.01,2013-12-07 22:01:00,
2013-12-07 16:07:00,2.5,-3.9,30.56,SSE,158,1.6,1.6,74,0.00,,,0.00,VWS V14.01,2013-12-07 22:07:00,
2013-12-07 16:12:00,2.3,-4.1,30.56,South,180,0.0,0.0,74,0.00,,,0.00,VWS V14.01,2013-12-07 22:12:00,
2013-12-07 16:17:00,2.1,-4.2,30.56,ENE,68,0.0,0.0,74,0.00,,,0.00,VWS V14.01,2013-12-07 22:17:00,
2013-12-07 16:22:00,1.8,-4.6,30.56,SW,225,0.0,0.0,74,0.00,,,0.00,VWS V14.01,2013-12-07 22:22:00,
2013-12-07 16:27:00,1.6,-4.8,30.56,SW,225,0.0,0.0,74,0.00,,,0.00,VWS V14.01,2013-12-07 22:27:00,
2013-12-07 16:32:00,1.2,-5.1,30.59,SW,225,0.0,0.0,74,0.00,,,0.00,VWS V14.01,2013-12-07 22:32:00,
2013-12-07 16:37:00,0.7,-5.6,30.59,SW,225,0.0,0.0,74,0.00,,,0.00,VWS V14.01,2013-12-07 22:37:00,
2013-12-07 16:42:00,0.3,-6.0,30.59,SW,225,0.0,0.0,74,0.00,,,0.00,VWS V14.01,2013-12-07 22:42:00,
2013-12-07 16:47:00,0.0,-6.3,30.62,SW,225,0.0,0.0,74,0.00,,,0.00,VWS V14.01,2013-12-07 22:47:00,
2013-12-07 16:52:00,-0.6,-6.9,30.62,SW,225,0.0,0.0,74,0.00,,,0.00,VWS V14.01,2013-12-07 22:52:00,
2013-12-07 16:57:00,-1.1,-7.4,30.62,SW,225,0.0,0.0,74,0.00,,,0.00,VWS V14.01,2013-12-07 22:57:00,
2013-12-07 17:02:00,-1.5,-7.7,30.59,SW,225,0.0,0.0,74,0.00,,,0.00,VWS V14.01,2013-12-07 23:02:00,
2013-12-07 17:07:00,-1.8,-8.1,30.59,SW,225,0.0,0.0,74,0.00,,,0.00,VWS V14.01,2013-12-07 23:07:00,
2013-12-07 17:12:00,-2.2,-8.4,30.59,SW,225,0.0,0.0,74,0.00,,,0.00,VWS V14.01,2013-12-07 23:12:00,
2013-12-07 17:17:00,-2.4,-8.6,30.59,SW,225,0.0,0.0,74,0.00,,,0.00,VWS V14.01,2013-12-07 23:17:00,
2013-12-07 17:22:00,-2.6,-8.8,30.59,SW,225,0.0,0.0,74,0.00,,,0.00,VWS V14.01,2013-12-07 23:22:00,
2013-12-07 17:27:00,-2.9,-9.1,30.59,SW,225,0.0,0.0,74,0.00,,,0.00,VWS V14.01,2013-12-07 23:27:00,
2013-12-07 17:33:00,-3.1,-9.3,30.62,SW,225,0.0,0.0,74,0.00,,,0.00,VWS V14.01,2013-12-07 23:33:00,
2013-12-07 17:38:00,-3.3,-9.5,30.62,SW,225,0.0,0.0,74,0.00,,,0.00,VWS V14.01,2013-12-07 23:38:00,
2013-12-07 17:43:00,-3.5,-9.7,30.62,SW,225,0.0,0.0,74,0.00,,,0.00,VWS V14.01,2013-12-07 23:43:00,
2013-12-07 17:48:00,-3.5,-9.7,30.59,SW,225,0.0,0.0,74,0.00,,,0.00,VWS V14.01,2013-12-07 23:48:00,
2013-12-07 17:53:00,-3.5,-9.7,30.59,SW,225,0.0,0.0,74,0.00,,,0.00,VWS V14.01,2013-12-07 23:53:00,
2013-12-07 17:58:00,-3.5,-9.7,30.59,SW,225,0.0,0.0,74,0.00,,,0.00,VWS V14.01,2013-12-07 23:58:00,
2013-12-07 18:03:00,-3.8,-10.0,30.59,SW,225,0.0,0.0,74,0.00,,,0.00,VWS V14.01,2013-12-08 00:03:00,
2013-12-07 18:08:00,-4.0,-10.2,30.59,SW,225,0.0,0.0,74,0.00,,,0.00,VWS V14.01,2013-12-08 00:08:00,
2013-12-07 18:13:00,-4.2,-10.4,30.59,SW,225,0.0,0.0,74,0.00,,,0.00,VWS V14.01,2013-12-08 00:13:00,
2013-12-07 18:18:00,-4.4,-10.5,30.59,SW,225,0.0,0.0,74,0.00,,,0.00,VWS V14.01,2013-12-08 00:18:00,
2013-12-07 18:23:00,-4.7,-10.9,30.59,SW,225,0.0,0.0,74,0.00,,,0.00,VWS V14.01,2013-12-08 00:23:00,
2013-12-07 18:28:00,-4.9,-11.1,30.59,SW,225,0.0,0.0,74,0.00,,,0.00,VWS V14.01,2013-12-08 00:28:00,
2013-12-07 18:33:00,-4.9,-11.1,30.56,SW,225,0.0,0.0,74,0.00,,,0.00,VWS V14.01,2013-12-08 00:33:00,
2013-12-07 18:38:00,-5.1,-11.2,30.56,SW,225,0.0,0.0,74,0.00,,,0.00,VWS V14.01,2013-12-08 00:38:00,
2013-12-07 18:43:00,-5.3,-11.4,30.56,SW,225,0.0,0.0,74,0.00,,,0.00,VWS V14.01,2013-12-08 00:43:00,
2013-12-07 18:48:00,-5.4,-11.6,30.56,SW,225,0.0,0.0,74,0.00,,,0.00,VWS V14.01,2013-12-08 00:48:00,
2013-12-07 18:53:00,-5.6,-11.8,30.56,SW,225,0.0,0.0,74,0.00,,,0.00,VWS V14.01,2013-12-08 00:53:00,
2013-12-07 18:59:00,-5.8,-11.9,30.56,SW,225,0.0,0.0,74,0.00,,,0.00,VWS V14.01,2013-12-08 00:59:00,
2013-12-07 19:04:00,-6.2,-12.3,30.56,SW,225,0.0,0.0,74,0.00,,,0.00,VWS V14.01,2013-12-08 01:04:00,
2013-12-07 19:09:00,-6.3,-12.4,30.56,SW,225,0.0,0.0,74,0.00,,,0.00,VWS V14.01,2013-12-08 01:09:00,
2013-12-07 19:14:00,-6.3,-12.4,30.56,SW,225,0.0,0.0,74,0.00,,,0.00,VWS V14.01,2013-12-08 01:14:00,
2013-12-07 19:19:00,-6.3,-12.4,30.56,SW,225,0.0,0.0,74,0.00,,,0.00,VWS V14.01,2013-12-08 01:19:00,
2013-12-07 19:24:00,-6.3,-12.4,30.56,SW,225,0.0,0.0,74,0.00,,,0.00,VWS V14.01,2013-12-08 01:24:00,
2013-12-07 19:29:00,-6.3,-12.4,30.56,SW,225,0.0,0.0,74,0.00,,,0.00,VWS V14.01,2013-12-08 01:29:00,
2013-12-07 19:34:00,-6.3,-12.4,30.53,SW,225,0.0,0.0,74,0.00,,,0.00,VWS V14.01,2013-12-08 01:34:00,
2013-12-07 19:39:00,-6.3,-12.4,30.53,SW,225,0.0,0.0,74,0.00,,,0.00,VWS V14.01,2013-12-08 01:39:00,
2013-12-07 19:44:00,-6.3,-12.4,30.53,SW,225,0.0,0.0,74,0.00,,,0.00,VWS V14.01,2013-12-08 01:44:00,
2013-12-07 19:49:00,-6.5,-12.6,30.53,SW,225,0.0,0.0,74,0.00,,,0.00,VWS V14.01,2013-12-08 01:49:00,
2013-12-07 19:54:00,-6.5,-12.6,30.53,SW,225,0.0,0.0,74,0.00,,,0.00,VWS V14.01,2013-12-08 01:54:00,
2013-12-07 19:59:00,-6.5,-12.6,30.53,SW,225,0.0,0.0,74,0.00,,,0.00,VWS V14.01,2013-12-08 01:59:00,
2013-12-07 20:04:00,-6.5,-12.6,30.53,SW,225,0.0,0.0,74,0.00,,,0.00,VWS V14.01,2013-12-08 02:04:00,
2013-12-07 20:09:00,-6.5,-12.6,30.53,SW,225,0.0,0.0,74,0.00,,,0.00,VWS V14.01,2013-12-08 02:09:00,
2013-12-07 20:14:00,-6.7,-12.8,30.53,SW,225,0.0,0.0,74,0.00,,,0.00,VWS V14.01,2013-12-08 02:14:00,
2013-12-07 20:21:00,-6.9,-13.0,30.56,SW,225,0.0,0.0,74,0.00,,,0.00,VWS V14.01,2013-12-08 02:21:00,
2013-12-07 20:26:00,-6.9,-13.0,30.56,SW,225,0.0,0.0,74,0.00,,,0.00,VWS V14.01,2013-12-08 02:26:00,
2013-12-07 20:31:00,-6.9,-13.0,30.56,SW,225,0.0,0.0,74,0.00,,,0.00,VWS V14.01,2013-12-08 02:31:00,
2013-12-07 20:36:00,-6.9,-13.0,30.56,SW,225,0.0,0.0,74,0.00,,,0.00,VWS V14.01,2013-12-08 02:36:00,
2013-12-07 20:41:00,-7.1,-13.1,30.56,SW,225,0.0,0.0,74,0.00,,,0.00,VWS V14.01,2013-12-08 02:41:00,
2013-12-07 20:51:00,-7.1,-13.1,30.53,SW,225,0.0,0.0,74,0.00,,,0.00,VWS V14.01,2013-12-08 02:51:00,
2013-12-07 20:57:00,-7.1,-13.1,30.53,SW,225,0.0,0.0,74,0.00,,,0.00,VWS V14.01,2013-12-08 02:57:00,
2013-12-07 21:06:00,-7.2,-13.3,30.53,SW,225,0.0,0.0,74,0.00,,,0.00,VWS V14.01,2013-12-08 03:06:00,
2013-12-07 21:11:00,-7.2,-13.3,30.53,SW,225,0.0,0.0,74,0.00,,,0.00,VWS V14.01,2013-12-08 03:11:00,
2013-12-07 21:21:00,-7.6,-13.7,30.53,SW,225,0.0,0.0,74,0.00,,,0.00,VWS V14.01,2013-12-08 03:21:00,
2013-12-07 21:26:00,-7.8,-13.8,30.53,SW,225,0.0,0.0,74,0.00,,,0.00,VWS V14.01,2013-12-08 03:26:00,
2013-12-07 21:31:00,-7.8,-13.8,30.53,SW,225,0.0,0.0,74,0.00,,,0.00,VWS V14.01,2013-12-08 03:31:00,
2013-12-07 21:36:00,-8.0,-14.0,30.53,SW,225,0.0,0.0,74,0.00,,,0.00,VWS V14.01,2013-12-08 03:36:00,
2013-12-07 21:41:00,-8.0,-14.0,30.53,SW,225,0.0,0.0,74,0.00,,,0.00,VWS V14.01,2013-12-08 03:41:00,
2013-12-07 21:46:00,-8.0,-14.0,30.53,SW,225,0.0,0.0,74,0.00,,,0.00,VWS V14.01,2013-12-08 03:46:00,
2013-12-07 21:51:00,-8.0,-14.0,30.53,SW,225,0.0,0.0,74,0.00,,,0.00,VWS V14.01,2013-12-08 03:51:00,
2013-12-07 21:56:00,-7.8,-13.8,30.53,SW,225,0.0,0.0,74,0.00,,,0.00,VWS V14.01,2013-12-08 03:56:00,
2013-12-07 22:01:00,-7.6,-13.7,30.53,SW,225,0.0,0.0,74,0.00,,,0.00,VWS V14.01,2013-12-08 04:01:00,
2013-12-07 22:06:00,-7.4,-13.5,30.53,SW,225,0.0,0.0,74,0.00,,,0.00,VWS V14.01,2013-12-08 04:06:00,
2013-12-07 22:11:00,-7.4,-13.5,30.53,SW,225,0.0,0.0,74,0.00,,,0.00,VWS V14.01,2013-12-08 04:11:00,
2013-12-07 22:16:00,-7.2,-13.3,30.53,SW,225,0.0,0.0,74,0.00,,,0.00,VWS V14.01,2013-12-08 04:16:00,
2013-12-07 22:21:00,-7.2,-13.3,30.53,SW,225,0.0,0.0,74,0.00,,,0.00,VWS V14.01,2013-12-08 04:21:00,
2013-12-07 22:26:00,-7.1,-13.1,30.53,SW,225,0.0,0.0,74,0.00,,,0.00,VWS V14.01,2013-12-08 04:26:00,
2013-12-07 22:31:00,-6.9,-13.0,30.53,SW,225,0.0,0.0,74,0.00,,,0.00,VWS V14.01,2013-12-08 04:31:00,
2013-12-07 22:36:00,-6.7,-12.8,30.53,SW,225,0.0,0.0,74,0.00,,,0.00,VWS V14.01,2013-12-08 04:36:00,
2013-12-07 22:41:00,-6.7,-12.8,30.53,SW,225,0.0,0.0,74,0.00,,,0.00,VWS V14.01,2013-12-08 04:41:00,
2013-12-07 22:46:00,-6.7,-12.8,30.53,SW,225,0.0,0.0,74,0.00,,,0.00,VWS V14.01,2013-12-08 04:46:00,
2013-12-07 22:51:00,-6.7,-12.8,30.53,SW,225,0.0,0.0,74,0.00,,,0.00,VWS V14.01,2013-12-08 04:51:00,
2013-12-07 22:56:00,-6.7,-12.8,30.53,SW,225,0.0,0.0,74,0.00,,,0.00,VWS V14.01,2013-12-08 04:56:00,
2013-12-07 23:01:00,-6.5,-12.6,30.53,SW,225,0.0,0.0,74,0.00,,,0.00,VWS V14.01,2013-12-08 05:01:00,
2013-12-07 23:06:00,-6.5,-12.6,30.53,SW,225,0.0,0.0,74,0.00,,,0.00,VWS V14.01,2013-12-08 05:06:00,
2013-12-07 23:11:00,-6.5,-12.6,30.53,SW,225,0.0,0.0,74,0.00,,,0.00,VWS V14.01,2013-12-08 05:11:00,
2013-12-07 23:16:00,-6.5,-12.6,30.53,SW,225,0.0,0.0,74,0.00,,,0.00,VWS V14.01,2013-12-08 05:16:00,
2013-12-07 23:21:00,-6.3,-12.4,30.53,SW,225,0.0,0.0,74,0.00,,,0.00,VWS V14.01,2013-12-08 05:21:00,
2013-12-07 23:32:00,-6.2,-12.3,30.53,SW,225,0.0,0.0,74,0.00,,,0.00,VWS V14.01,2013-12-08 05:32:00,
2013-12-07 23:41:00,-6.2,-12.3,30.53,SW,225,0.0,0.0,74,0.00,,,0.00,VWS V14.01,2013-12-08 05:41:00,
2013-12-07 23:46:00,-6.2,-12.3,30.53,SW,225,0.0,0.0,74,0.00,,,0.00,VWS V14.01,2013-12-08 05:46:00,
2013-12-07 23:51:00,-6.2,-12.3,30.53,SW,225,0.0,0.0,74,0.00,,,0.00,VWS V14.01,2013-12-08 05:51:00,